Stephen L. — WDE7070 — position and weather

sailwx.info

Track history (hours):
 
Tides and Currents Weather Stations Pressure Air Temp Water Temp Dewpoint Dewpoint Depression Visibility Wind Speed Wind Dir Waves Ship Positions

Stephen L.

Owner: TRIPLE S MARINE, LLC, MORGAN CITY, LA. More information available from US FCC via Universal Licensing System and Coast Guard Vessel Documentation Center.

Last reported at 2017-Feb-19 08:13 UTC. Time now 2017-Feb-24 03:48 UTC.
Position N 29°39' W 091°06'.

Length 20 m.

Type: Ship. MMSI: 367388580.

Date/timePositionNaut miles runAvg speedWind from/ knotsBaromVisibWave heightAir tempDewpointWater temp
2017-Feb-19 08:13N 29°39' W 091°06'0 0.0
2017-Feb-19 07:33N 29°39' W 091°06'0 0.0
2017-Feb-19 06:33N 29°39' W 091°06'  
2017-Feb-15 22:33N 29°35' W 090°58'7 7.0
2017-Feb-15 21:33N 29°32' W 090°51'6 6.2
2017-Feb-15 20:33N 29°34' W 090°44'5 4.7
2017-Feb-15 19:33N 29°29' W 090°43'4 1.2
2017-Feb-15 16:30N 29°26' W 090°43'5 5.6
2017-Feb-15 15:33N 29°31' W 090°43'3 3.2
2017-Feb-15 14:33N 29°34' W 090°44'0 0.0
2017-Feb-15 13:33N 29°34' W 090°44'0 0.0
2017-Feb-15 12:33N 29°34' W 090°44'0 0.0
2017-Feb-15 11:33N 29°34' W 090°44'3 2.7
2017-Feb-15 10:33N 29°32' W 090°46'  
Track history (hours):
 
Tides and Currents Weather Stations Pressure Air Temp Water Temp Dewpoint Dewpoint Depression Visibility Wind Speed Wind Dir Waves Ship Positions

Stephen L.

Owner: TRIPLE S MARINE, LLC, MORGAN CITY, LA. More information available from US FCC via Universal Licensing System and Coast Guard Vessel Documentation Center.

Last reported at 2017-Feb-19 08:13 UTC. Time now 2017-Feb-24 03:48 UTC.
Position N 29°39' W 091°06'.

Length 20 m.

Type: Ship. MMSI: 367388580.

Date/timePositionNaut miles runAvg speedWind from/ knotsBaromVisibWave heightAir tempDewpointWater temp
2017-Feb-19 08:13N 29°39' W 091°06'0 0.0
2017-Feb-19 07:33N 29°39' W 091°06'0 0.0
2017-Feb-19 06:33N 29°39' W 091°06'  
2017-Feb-15 22:33N 29°35' W 090°58'7 7.0
2017-Feb-15 21:33N 29°32' W 090°51'6 6.2
2017-Feb-15 20:33N 29°34' W 090°44'5 4.7
2017-Feb-15 19:33N 29°29' W 090°43'4 1.2
2017-Feb-15 16:30N 29°26' W 090°43'5 5.6
2017-Feb-15 15:33N 29°31' W 090°43'3 3.2
2017-Feb-15 14:33N 29°34' W 090°44'0 0.0
2017-Feb-15 13:33N 29°34' W 090°44'0 0.0
2017-Feb-15 12:33N 29°34' W 090°44'0 0.0
2017-Feb-15 11:33N 29°34' W 090°44'3 2.7
2017-Feb-15 10:33N 29°32' W 090°46'  

Dump ship's entire track history